Chicago Rockford International Airport
KRFD : rendu visible

Aérodrome :











RETROUVEZ-NOUS SUR...

 
LOGIN :

S'inscrire | Disclaimer

   EN    FR    IT 

 









Légende :    VFR   VFR Marginal   IFR   IFR Intensif   IFR Très Intensif
Visi : 
Plafond : 
>= 8 km
>= 3000ft
5 à 8 km
1000 à 3000 ft
1500m à 5 km
500 à 1000 ft
800 à 1500m
200 à 500 ft
< 800m
< 200 ft
Symboles :   Orages  Brouillard  Fortes neiges  Fortes précipitations  Vent > 20 kt







- Altitude de l'aérodrome : 742 ft
- Code IATA : RFD


KRFD - Chicago Rockford International

DERNIER METAR :
  • 241854Z 19006KT 10SM -RA SCT070 OVC090 13/06 A2997 RMK RAB12 SLP151 P0000 T01330056

METARs EXPIRÉS :
  • 241754Z 19008KT 10SM SCT150 BKN250 14/04 A2997 RMK SLP152 T01390039 10144 20067 58019
  • 241654Z 15008KT 10SMSM SCT150 BKN250 14/04 A3000 RMK SLP159 T01440039

TAF KRFD
Valide du 24 à 18h jusqu'au 25 à 18h UTC


241729Z 2418/2518 16008KT P6SM VCSH BKN080 BKN150
TEMPO 2418/2420 -SHRA
FM250000 18005KT P6SM FEW050 BKN100
FM250800 22004KT P6SM FEW250
FIR KZAU / Amérique du Nord



MET'MAP, la Météo Aéronautique d'un coup d'oeil ! - Copyright ORBIFLY Décembre 2007 - Disclaimer

ORBIFLY MET'MAP TEAM :

Programmation & Développement : Alexandra Zaïnal
Conception & Développement : Baudouin d'Aumeries
Co-Programmation & Développement : Marc-Olivier Méhu
Soutien technique & logistique : Manuel Goepfert

Contact : metmap@orbifly.com




SOURCES & CREDITS :

   NOAA       Earth
Advisory